Menu Close Menu
Station Historical Data
Daily Summary for April 24, 2017 Units:  English    Metric   Both
« Previous Day
Next Day »
Daily Weekly Monthly Yearly Custom
  High: Low: Average:
Temperature: 63.7 °F 53.0 °F 56.7 °F
Dew Point: 60.1 °F 50.4 °F 53.9 °F
Humidity: 92% 86% 91%
Wind Speed: 0.0mph 0.0mph 0mph
Wind Gust: 5.0mph - -
Wind- -
Pressure: 29.82 in 29.74 in -
Precipitation: 0.05 in    
Historical Graphs
 
 
Tabular Data for April 24, 2017
Time Temperature Dew Point Pressure Wind Wind Speed Wind Gust Humidity Rainfall Rate (Hourly) solar Conditions
00:00 53.0 °F 50.4 °F 29.82 in Calm     91% 0.00 in WeatherDisplay:10.37 W/m2 RA
00:15 53.0 °F 50.4 °F 29.82 in Calm     91% 0.00 in WeatherDisplay:10.37 W/m2 SCT
00:30 53.0 °F 50.4 °F 29.82 in Calm     91% 0.00 in WeatherDisplay:10.37 W/m2 SCT
00:45 53.0 °F 50.4 °F 29.82 in Calm     91% 0.00 in WeatherDisplay:10.37 W/m2 SCT
01:00 53.0 °F 50.4 °F 29.82 in Calm     91% 0.00 in WeatherDisplay:10.37 W/m2 SCT
01:15 53.0 °F 50.4 °F 29.82 in Calm     91% 0.00 in WeatherDisplay:10.37 W/m2 SCT
01:30 53.0 °F 50.4 °F 29.81 in Calm     91% 0.00 in WeatherDisplay:10.37 W/m2 SCT
01:45 53.0 °F 50.4 °F 29.81 in Calm     91% 0.00 in WeatherDisplay:10.37 W/m2 SCT
02:00 53.0 °F 50.4 °F 29.80 in Calm     91% 0.00 in WeatherDisplay:10.37 W/m2 SCT
02:30 53.0 °F 50.4 °F 29.79 in Calm     91% 0.00 in WeatherDisplay:10.37 W/m2 SCT
02:45 53.0 °F 50.4 °F 29.79 in Calm     91% 0.00 in WeatherDisplay:10.37 W/m2 SCT
03:00 53.0 °F 50.4 °F 29.78 in Calm     91% 0.00 in WeatherDisplay:10.37 W/m2 SCT
03:15 53.0 °F 50.4 °F 29.78 in Calm     91% 0.00 in WeatherDisplay:10.37 W/m2 SCT
03:30 53.0 °F 50.4 °F 29.79 in Calm     91% 0.00 in WeatherDisplay:10.37 W/m2 SCT
03:45 53.0 °F 50.4 °F 29.79 in Calm     91% 0.00 in WeatherDisplay:10.37 W/m2 SCT
04:00 53.0 °F 50.4 °F 29.78 in Calm     91% 0.00 in WeatherDisplay:10.37 W/m2 SCT
04:15 53.0 °F 50.4 °F 29.78 in Calm     91% 0.00 in WeatherDisplay:10.37 W/m2 SCT
04:30 53.0 °F 50.4 °F 29.77 in Calm     91% 0.00 in WeatherDisplay:10.37 W/m2 SCT
04:45 53.0 °F 50.4 °F 29.77 in Calm     91% 0.00 in WeatherDisplay:10.37 W/m2 SCT
05:00 53.0 °F 50.4 °F 29.77 in Calm     91% 0.00 in WeatherDisplay:10.37 W/m2 SCT
05:15 53.0 °F 50.4 °F 29.76 in Calm     91% 0.00 in WeatherDisplay:10.37 W/m2 SCT
05:30 53.0 °F 50.4 °F 29.77 in Calm     91% 0.00 in WeatherDisplay:10.37 W/m2 SCT
05:45 53.0 °F 50.4 °F 29.77 in Calm     91% 0.00 in WeatherDisplay:10.37 W/m2 SCT
06:00 53.0 °F 50.4 °F 29.77 in Calm     91% 0.00 in WeatherDisplay:10.37 W/m2 SCT
06:15 53.0 °F 50.4 °F 29.76 in Calm     91% 0.00 in WeatherDisplay:10.37 W/m2 SCT
06:30 53.0 °F 50.4 °F 29.77 in Calm     91% 0.00 in WeatherDisplay:10.37 W/m2 SCT
06:45 53.0 °F 50.4 °F 29.76 in Calm     91% 0.00 in WeatherDisplay:10.37 W/m2 SCT
07:00 53.0 °F 50.4 °F 29.76 in Calm     91% 0.00 in WeatherDisplay:10.37 W/m2 SCT
07:15 53.0 °F 50.4 °F 29.77 in Calm     91% 0.00 in WeatherDisplay:10.37 W/m2 SCT
07:30 53.0 °F 50.4 °F 29.77 in Calm     91% 0.00 in WeatherDisplay:10.37 W/m2 SCT
07:45 53.0 °F 50.4 °F 29.77 in Calm     91% 0.00 in WeatherDisplay:10.37 W/m2 SCT
08:00 53.0 °F 50.4 °F 29.77 in Calm     91% 0.00 in WeatherDisplay:10.37 W/m2 SCT
08:15 53.0 °F 50.4 °F 29.78 in Calm     91% 0.00 in WeatherDisplay:10.37 W/m2 SCT
08:30 53.0 °F 50.4 °F 29.78 in Calm     91% 0.00 in WeatherDisplay:10.37 W/m2 SCT
08:45 53.0 °F 50.4 °F 29.79 in Calm     91% 0.00 in WeatherDisplay:10.37 W/m2 SCT
09:00 53.0 °F 50.4 °F 29.79 in Calm     91% 0.00 in WeatherDisplay:10.37 W/m2 SCT
09:15 53.0 °F 50.4 °F 29.79 in Calm     91% 0.00 in WeatherDisplay:10.37 W/m2 SCT
09:30 53.0 °F 50.4 °F 29.79 in Calm     91% 0.00 in WeatherDisplay:10.37 W/m2 SCT
09:45 53.0 °F 50.4 °F 29.79 in Calm     91% 0.00 in WeatherDisplay:10.37 W/m2 SCT
10:00 53.6 °F 51.3 °F 29.79 in Calm   1.0 mph 92% 0.00 in WeatherDisplay:10.37 W/m2 SCT
10:30 54.1 °F 51.8 °F 29.80 in Calm   1.0 mph 92% 0.01 in WeatherDisplay:10.37 W/m2 SCT
10:45 54.1 °F 51.9 °F 29.80 in Calm   1.0 mph 92% 0.01 in WeatherDisplay:10.37 W/m2 SCT
11:00 54.4 °F 52.1 °F 29.80 in Calm   1.0 mph 92% 0.00 in WeatherDisplay:10.37 W/m2 SCT
11:15 54.7 °F 52.4 °F 29.80 in Calm   1.0 mph 92% 0.00 in WeatherDisplay:10.37 W/m2 SCT
11:30 54.7 °F 52.4 °F 29.80 in Calm   1.0 mph 92% 0.01 in WeatherDisplay:10.37 W/m2 SCT
11:45 54.9 °F 52.6 °F 29.80 in Calm   2.0 mph 92% 0.00 in WeatherDisplay:10.37 W/m2 SCT
12:00 55.3 °F 53.0 °F 29.80 in Calm   2.0 mph 92% 0.00 in WeatherDisplay:10.37 W/m2 SCT
12:15 55.6 °F 53.3 °F 29.80 in Calm   1.0 mph 92% 0.00 in WeatherDisplay:10.37 W/m2 SCT
12:30 55.8 °F 53.5 °F 29.80 in Calm     92% 0.00 in WeatherDisplay:10.37 W/m2 SCT
12:45 56.1 °F 53.8 °F 29.80 in Calm     92% 0.00 in WeatherDisplay:10.37 W/m2 SCT
13:00 56.5 °F 54.2 °F 29.80 in Calm     92% 0.00 in WeatherDisplay:10.37 W/m2 SCT
13:15 56.6 °F 54.0 °F 29.79 in Calm   1.0 mph 91% 0.00 in WeatherDisplay:10.37 W/m2 SCT
13:30 57.0 °F 54.4 °F 29.78 in Calm   1.0 mph 91% 0.00 in WeatherDisplay:10.37 W/m2 SCT
13:45 57.9 °F 55.0 °F 29.78 in Calm   1.0 mph 90% 0.00 in WeatherDisplay:10.37 W/m2 SCT
14:00 58.4 °F 55.2 °F 29.78 in Calm   2.0 mph 89% 0.00 in WeatherDisplay:10.37 W/m2 SCT
14:15 58.6 °F 55.4 °F 29.78 in Calm   1.0 mph 89% 0.00 in WeatherDisplay:10.37 W/m2 SCT
14:30 58.8 °F 55.6 °F 29.78 in Calm   1.0 mph 89% 0.00 in WeatherDisplay:10.37 W/m2 SCT
15:00 60.0 °F 56.1 °F 29.77 in Calm   2.0 mph 87% 0.00 in WeatherDisplay:10.37 W/m2 SCT
15:15 60.4 °F 56.5 °F 29.78 in Calm   2.0 mph 87% 0.00 in WeatherDisplay:10.37 W/m2 SCT
15:30 60.1 °F 55.9 °F 29.77 in Calm   2.0 mph 86% 0.00 in WeatherDisplay:10.37 W/m2 SCT
15:45 60.1 °F 56.2 °F 29.77 in Calm   1.0 mph 87% 0.00 in WeatherDisplay:10.37 W/m2 SCT
16:00 60.4 °F 56.5 °F 29.77 in Calm   1.0 mph 87% 0.00 in WeatherDisplay:10.37 W/m2 SCT
16:15 60.7 °F 57.1 °F 29.76 in Calm   2.0 mph 88% 0.00 in WeatherDisplay:10.37 W/m2 SCT
16:45 60.3 °F 57.4 °F 29.76 in Calm   2.0 mph 90% 0.00 in WeatherDisplay:10.37 W/m2 SCT
17:00 60.7 °F 58.1 °F 29.76 in Calm   1.0 mph 91% 0.00 in WeatherDisplay:10.37 W/m2 SCT
17:15 61.5 °F 58.8 °F 29.75 in Calm     91% 0.00 in WeatherDisplay:10.37 W/m2 SCT
17:30 62.3 °F 59.7 °F 29.74 in Calm   2.0 mph 91% 0.00 in WeatherDisplay:10.37 W/m2 SCT
17:45 62.5 °F 58.9 °F 29.75 in Calm   5.0 mph 88% 0.00 in WeatherDisplay:10.37 W/m2 SCT
18:00 63.6 °F 59.3 °F 29.75 in Calm   1.0 mph 86% 0.00 in WeatherDisplay:10.37 W/m2 SCT
18:15 63.7 °F 59.4 °F 29.75 in Calm   1.0 mph 86% 0.00 in WeatherDisplay:10.37 W/m2 SCT
18:30 63.7 °F 60.1 °F 29.75 in Calm     88% 0.00 in WeatherDisplay:10.37 W/m2 SCT
18:45 63.3 °F 59.0 °F 29.75 in Calm   1.0 mph 86% 0.00 in WeatherDisplay:10.37 W/m2 SCT
19:00 62.9 °F 59.0 °F 29.75 in Calm   1.0 mph 87% 0.00 in WeatherDisplay:10.37 W/m2 SCT
19:15 62.7 °F 59.4 °F 29.74 in Calm     89% 0.00 in WeatherDisplay:10.37 W/m2 SCT
19:30 62.1 °F 58.5 °F 29.74 in Calm     88% 0.00 in WeatherDisplay:10.37 W/m2 SCT
19:45 61.6 °F 58.3 °F 29.75 in Calm     89% 0.00 in WeatherDisplay:10.37 W/m2 SCT
20:00 61.4 °F 58.5 °F 29.75 in Calm     90% 0.00 in WeatherDisplay:10.37 W/m2 SCT
20:15 61.3 °F 58.3 °F 29.75 in Calm     90% 0.00 in WeatherDisplay:10.37 W/m2 SCT
20:30 61.0 °F 58.4 °F 29.75 in Calm     91% 0.00 in WeatherDisplay:10.37 W/m2 SCT
20:45 61.0 °F 58.4 °F 29.75 in Calm     91% 0.00 in WeatherDisplay:10.37 W/m2 SCT
21:00 61.0 °F 58.3 °F 29.75 in Calm     91% 0.00 in WeatherDisplay:10.37 W/m2 SCT
21:15 60.8 °F 58.2 °F 29.75 in Calm     91% 0.00 in WeatherDisplay:10.37 W/m2 SCT
21:30 60.4 °F 57.8 °F 29.75 in Calm     91% 0.00 in WeatherDisplay:10.37 W/m2 SCT
21:45 60.3 °F 58.0 °F 29.75 in Calm     92% 0.00 in WeatherDisplay:10.37 W/m2 SCT
22:00 60.1 °F 57.8 °F 29.75 in Calm     92% 0.00 in WeatherDisplay:10.37 W/m2 SCT
22:15 60.0 °F 57.7 °F 29.75 in Calm     92% 0.00 in WeatherDisplay:10.37 W/m2 SCT
22:30 59.9 °F 57.6 °F 29.76 in Calm     92% 0.00 in WeatherDisplay:10.37 W/m2 SCT
22:45 59.8 °F 57.5 °F 29.75 in Calm     92% 0.00 in WeatherDisplay:10.37 W/m2 SCT
23:00 59.7 °F 57.4 °F 29.76 in Calm     92% 0.00 in WeatherDisplay:10.37 W/m2 SCT
23:15 59.7 °F 57.4 °F 29.75 in Calm     92% 0.00 in WeatherDisplay:10.37 W/m2 SCT
23:30 59.5 °F 57.2 °F 29.76 in Calm     92% 0.00 in WeatherDisplay:10.37 W/m2 SCT
23:45 59.2 °F 56.9 °F 29.76 in Calm     92% 0.00 in WeatherDisplay:10.37 W/m2 SCT
Piedmont Bend
Compliments of Weather Underground - 4 mb